Mendoza, Texas
Current Conditions -  °F | °C
As of 7:46 AM on Friday 19 Dec 2014 (Local Time) from KHYI Reporting Station
Overcast Overcast  
Wind Chill: 50°   Ceiling: 1000
Heat Index: 50°   Visibility: 7mi
Dew Point: 46°   Wind: 18mph
Humidity: 87%   Direction: 360°N
Pressure: 30.1"   Gusts: 23mph
Location:  29.8965°N, 97.6713°W
Report Text: KHYI 191346Z 36016G20KT 7SM BKN010 OVC037 10/08 A3010
Loading
Personal Weather Stations






























Interactive Weather Map New forecast layout! Learn more

10-Day Weather Forecast

Advertisements
Track Severe Weather on mobile